sensor_id;sensor_type;location;lat;lon;timestamp;pressure;altitude;pressure_sealevel;temperature;humidity
61908;BME280;47864;52.526;19.672;2023-02-16T00:03:21;101787.31;;;0.05;100.00
61908;BME280;47864;52.526;19.672;2023-02-16T00:07:25;101762.41;;;-0.04;100.00
61908;BME280;47864;52.526;19.672;2023-02-16T00:09:27;101781.13;;;0.07;100.00
61908;BME280;47864;52.526;19.672;2023-02-16T00:11:33;101757.38;;;-0.09;100.00
61908;BME280;47864;52.526;19.672;2023-02-16T00:13:35;101758.00;;;-0.02;100.00
61908;BME280;47864;52.526;19.672;2023-02-16T00:15:37;101774.09;;;0.09;100.00
61908;BME280;47864;52.526;19.672;2023-02-16T00:17:38;101764.50;;;0.10;100.00
61908;BME280;47864;52.526;19.672;2023-02-16T00:19:40;101759.56;;;0.02;100.00
61908;BME280;47864;52.526;19.672;2023-02-16T00:21:42;101762.69;;;0.12;100.00
61908;BME280;47864;52.526;19.672;2023-02-16T00:23:43;101767.63;;;0.19;100.00
61908;BME280;47864;52.526;19.672;2023-02-16T00:25:45;101742.91;;;0.06;100.00
61908;BME280;47864;52.526;19.672;2023-02-16T00:27:47;101771.00;;;0.23;100.00
61908;BME280;47864;52.526;19.672;2023-02-16T00:29:48;101760.03;;;0.13;100.00
61908;BME280;47864;52.526;19.672;2023-02-16T00:31:50;101770.19;;;0.21;100.00
61908;BME280;47864;52.526;19.672;2023-02-16T00:33:52;101767.81;;;0.15;100.00
61908;BME280;47864;52.526;19.672;2023-02-16T00:35:54;101757.53;;;0.10;100.00
61908;BME280;47864;52.526;19.672;2023-02-16T00:37:55;101753.69;;;-0.03;100.00
61908;BME280;47864;52.526;19.672;2023-02-16T00:39:57;101759.56;;;0.02;100.00
61908;BME280;47864;52.526;19.672;2023-02-16T00:42:04;101759.19;;;0.13;100.00
61908;BME280;47864;52.526;19.672;2023-02-16T00:44:14;101770.00;;;0.25;100.00
61908;BME280;47864;52.526;19.672;2023-02-16T00:46:16;101747.22;;;0.07;100.00
61908;BME280;47864;52.526;19.672;2023-02-16T00:48:18;101745.69;;;0.02;100.00
61908;BME280;47864;52.526;19.672;2023-02-16T00:52:34;101762.78;;;0.09;100.00
61908;BME280;47864;52.526;19.672;2023-02-16T00:54:36;101759.94;;;0.16;100.00
61908;BME280;47864;52.526;19.672;2023-02-16T00:56:38;101765.69;;;0.01;100.00
61908;BME280;47864;52.526;19.672;2023-02-16T00:58:41;101738.09;;;-0.29;100.00
61908;BME280;47864;52.526;19.672;2023-02-16T01:00:47;101756.13;;;-0.23;100.00
61908;BME280;47864;52.526;19.672;2023-02-16T01:02:50;101758.00;;;-0.27;100.00
61908;BME280;47864;52.526;19.672;2023-02-16T01:04:53;101728.16;;;-0.43;100.00
61908;BME280;47864;52.526;19.672;2023-02-16T01:06:55;101750.50;;;-0.36;100.00
61908;BME280;47864;52.526;19.672;2023-02-16T01:09:10;101753.97;;;-0.35;100.00
61908;BME280;47864;52.526;19.672;2023-02-16T01:11:12;101747.72;;;-0.31;100.00
61908;BME280;47864;52.526;19.672;2023-02-16T01:13:14;101752.78;;;-0.27;100.00
61908;BME280;47864;52.526;19.672;2023-02-16T01:15:17;101752.94;;;-0.31;100.00
61908;BME280;47864;52.526;19.672;2023-02-16T01:17:20;101744.44;;;-0.36;100.00
61908;BME280;47864;52.526;19.672;2023-02-16T01:19:21;101725.28;;;-0.35;100.00
61908;BME280;47864;52.526;19.672;2023-02-16T01:21:23;101746.13;;;-0.35;100.00
61908;BME280;47864;52.526;19.672;2023-02-16T01:23:24;101747.25;;;-0.43;100.00
61908;BME280;47864;52.526;19.672;2023-02-16T01:25:26;101716.63;;;-0.61;100.00
61908;BME280;47864;52.526;19.672;2023-02-16T01:27:27;101734.41;;;-0.49;100.00
61908;BME280;47864;52.526;19.672;2023-02-16T01:29:29;101736.97;;;-0.47;100.00
61908;BME280;47864;52.526;19.672;2023-02-16T01:31:31;101731.41;;;-0.36;100.00
61908;BME280;47864;52.526;19.672;2023-02-16T01:33:32;101738.16;;;-0.31;100.00
61908;BME280;47864;52.526;19.672;2023-02-16T01:35:34;101737.88;;;-0.23;100.00
61908;BME280;47864;52.526;19.672;2023-02-16T01:37:35;101720.97;;;-0.36;100.00
61908;BME280;47864;52.526;19.672;2023-02-16T01:39:37;101737.97;;;-0.25;100.00
61908;BME280;47864;52.526;19.672;2023-02-16T01:41:49;101733.09;;;-0.35;100.00
61908;BME280;47864;52.526;19.672;2023-02-16T01:44:08;101725.75;;;-0.49;100.00
61908;BME280;47864;52.526;19.672;2023-02-16T01:46:18;101701.94;;;-0.63;100.00
61908;BME280;47864;52.526;19.672;2023-02-16T01:48:25;101711.94;;;-0.51;100.00
61908;BME280;47864;52.526;19.672;2023-02-16T01:50:58;101709.53;;;-0.57;100.00
61908;BME280;47864;52.526;19.672;2023-02-16T01:53:03;101710.56;;;-0.61;100.00
61908;BME280;47864;52.526;19.672;2023-02-16T01:59:38;101694.91;;;-0.86;100.00
61908;BME280;47864;52.526;19.672;2023-02-16T02:01:41;101682.72;;;-0.86;100.00
61908;BME280;47864;52.526;19.672;2023-02-16T02:03:44;101672.44;;;-0.90;100.00
61908;BME280;47864;52.526;19.672;2023-02-16T02:05:47;101670.66;;;-0.88;100.00
61908;BME280;47864;52.526;19.672;2023-02-16T02:07:57;101673.31;;;-0.90;100.00
61908;BME280;47864;52.526;19.672;2023-02-16T02:10:09;101653.22;;;-0.86;100.00
61908;BME280;47864;52.526;19.672;2023-02-16T02:12:26;101660.34;;;-0.91;100.00
61908;BME280;47864;52.526;19.672;2023-02-16T02:14:32;101645.44;;;-1.12;100.00
61908;BME280;47864;52.526;19.672;2023-02-16T02:16:36;101654.59;;;-1.01;100.00
61908;BME280;47864;52.526;19.672;2023-02-16T02:18:37;101648.13;;;-0.89;100.00
61908;BME280;47864;52.526;19.672;2023-02-16T02:20:55;101634.88;;;-1.08;100.00
61908;BME280;47864;52.526;19.672;2023-02-16T02:23:20;101646.28;;;-1.12;100.00
61908;BME280;47864;52.526;19.672;2023-02-16T02:28:02;101621.41;;;-1.21;100.00
61908;BME280;47864;52.526;19.672;2023-02-16T02:30:24;101629.94;;;-1.16;100.00
61908;BME280;47864;52.526;19.672;2023-02-16T02:35:07;101632.13;;;-1.30;100.00
61908;BME280;47864;52.526;19.672;2023-02-16T02:37:28;101615.69;;;-1.32;100.00
61908;BME280;47864;52.526;19.672;2023-02-16T02:39:57;101628.53;;;-1.26;100.00
61908;BME280;47864;52.526;19.672;2023-02-16T02:42:08;101619.31;;;-1.36;100.00
61908;BME280;47864;52.526;19.672;2023-02-16T02:44:10;101629.13;;;-1.44;100.00
61908;BME280;47864;52.526;19.672;2023-02-16T02:46:18;101633.72;;;-1.52;100.00
61908;BME280;47864;52.526;19.672;2023-02-16T02:48:21;101631.47;;;-1.36;100.00
61908;BME280;47864;52.526;19.672;2023-02-16T02:50:52;101623.28;;;-1.50;100.00
61908;BME280;47864;52.526;19.672;2023-02-16T02:52:57;101616.28;;;-1.48;100.00
61908;BME280;47864;52.526;19.672;2023-02-16T02:55:00;101616.94;;;-1.42;100.00
61908;BME280;47864;52.526;19.672;2023-02-16T02:57:24;101610.03;;;-1.43;100.00
61908;BME280;47864;52.526;19.672;2023-02-16T02:59:29;101611.81;;;-1.45;100.00
61908;BME280;47864;52.526;19.672;2023-02-16T03:01:34;101586.00;;;-1.51;100.00
61908;BME280;47864;52.526;19.672;2023-02-16T03:03:49;101594.50;;;-1.46;100.00
61908;BME280;47864;52.526;19.672;2023-02-16T03:06:06;101605.41;;;-1.35;100.00
61908;BME280;47864;52.526;19.672;2023-02-16T03:08:12;101613.78;;;-1.25;100.00
61908;BME280;47864;52.526;19.672;2023-02-16T03:10:23;101605.53;;;-1.13;100.00
61908;BME280;47864;52.526;19.672;2023-02-16T03:12:26;101601.69;;;-1.28;100.00
61908;BME280;47864;52.526;19.672;2023-02-16T03:14:32;101606.75;;;-1.23;100.00
61908;BME280;47864;52.526;19.672;2023-02-16T03:16:38;101604.31;;;-1.28;100.00
61908;BME280;47864;52.526;19.672;2023-02-16T03:18:43;101600.72;;;-1.24;100.00
61908;BME280;47864;52.526;19.672;2023-02-16T03:20:46;101570.69;;;-1.34;100.00
61908;BME280;47864;52.526;19.672;2023-02-16T03:22:48;101605.41;;;-1.08;100.00
61908;BME280;47864;52.526;19.672;2023-02-16T03:24:50;101603.84;;;-1.14;100.00
61908;BME280;47864;52.526;19.672;2023-02-16T03:26:52;101614.97;;;-1.09;100.00
61908;BME280;47864;52.526;19.672;2023-02-16T03:28:55;101610.16;;;-1.21;100.00
61908;BME280;47864;52.526;19.672;2023-02-16T03:30:57;101620.47;;;-1.18;100.00
61908;BME280;47864;52.526;19.672;2023-02-16T03:33:00;101618.69;;;-1.16;100.00
61908;BME280;47864;52.526;19.672;2023-02-16T03:35:02;101601.03;;;-1.33;100.00
61908;BME280;47864;52.526;19.672;2023-02-16T03:37:04;101588.72;;;-1.29;100.00
61908;BME280;47864;52.526;19.672;2023-02-16T03:39:06;101578.88;;;-1.46;100.00
61908;BME280;47864;52.526;19.672;2023-02-16T03:41:08;101583.75;;;-1.35;100.00
61908;BME280;47864;52.526;19.672;2023-02-16T03:43:10;101595.22;;;-1.41;100.00
61908;BME280;47864;52.526;19.672;2023-02-16T03:45:11;101590.41;;;-1.53;100.00
61908;BME280;47864;52.526;19.672;2023-02-16T03:47:13;101599.13;;;-1.56;100.00
61908;BME280;47864;52.526;19.672;2023-02-16T03:49:16;101573.91;;;-1.80;100.00
61908;BME280;47864;52.526;19.672;2023-02-16T03:51:17;101572.28;;;-1.82;100.00
61908;BME280;47864;52.526;19.672;2023-02-16T03:53:19;101587.03;;;-1.83;100.00
61908;BME280;47864;52.526;19.672;2023-02-16T03:55:20;101590.69;;;-1.62;100.00
61908;BME280;47864;52.526;19.672;2023-02-16T03:57:22;101592.25;;;-1.57;100.00
61908;BME280;47864;52.526;19.672;2023-02-16T03:59:24;101583.06;;;-1.67;100.00
61908;BME280;47864;52.526;19.672;2023-02-16T04:01:25;101576.88;;;-1.64;100.00
61908;BME280;47864;52.526;19.672;2023-02-16T04:03:27;101557.94;;;-1.68;100.00
61908;BME280;47864;52.526;19.672;2023-02-16T04:05:28;101581.66;;;-1.50;100.00
61908;BME280;47864;52.526;19.672;2023-02-16T04:07:30;101572.28;;;-1.56;100.00
61908;BME280;47864;52.526;19.672;2023-02-16T04:09:32;101576.53;;;-1.54;100.00
61908;BME280;47864;52.526;19.672;2023-02-16T04:11:34;101556.19;;;-1.67;100.00
61908;BME280;47864;52.526;19.672;2023-02-16T04:13:35;101575.63;;;-1.52;100.00
61908;BME280;47864;52.526;19.672;2023-02-16T04:15:37;101572.22;;;-1.55;100.00
61908;BME280;47864;52.526;19.672;2023-02-16T04:17:38;101569.06;;;-1.64;100.00
61908;BME280;47864;52.526;19.672;2023-02-16T04:19:40;101566.88;;;-1.76;100.00
61908;BME280;47864;52.526;19.672;2023-02-16T04:21:41;101561.59;;;-2.01;100.00
61908;BME280;47864;52.526;19.672;2023-02-16T04:23:43;101561.19;;;-2.15;100.00
61908;BME280;47864;52.526;19.672;2023-02-16T04:25:44;101556.00;;;-2.15;100.00
61908;BME280;47864;52.526;19.672;2023-02-16T04:27:47;101569.47;;;-2.04;100.00
61908;BME280;47864;52.526;19.672;2023-02-16T04:29:49;101558.34;;;-2.08;100.00
61908;BME280;47864;52.526;19.672;2023-02-16T04:31:50;101556.22;;;-2.23;100.00
61908;BME280;47864;52.526;19.672;2023-02-16T04:33:52;101531.75;;;-2.45;100.00
61908;BME280;47864;52.526;19.672;2023-02-16T04:35:54;101535.44;;;-2.52;100.00
61908;BME280;47864;52.526;19.672;2023-02-16T04:37:55;101538.91;;;-2.53;100.00
61908;BME280;47864;52.526;19.672;2023-02-16T04:39:57;101543.78;;;-2.41;100.00
61908;BME280;47864;52.526;19.672;2023-02-16T04:41:58;101529.13;;;-2.44;100.00
61908;BME280;47864;52.526;19.672;2023-02-16T04:44:00;101524.16;;;-2.51;100.00
61908;BME280;47864;52.526;19.672;2023-02-16T04:46:01;101490.31;;;-2.78;100.00
61908;BME280;47864;52.526;19.672;2023-02-16T04:48:03;101517.97;;;-2.77;100.00
61908;BME280;47864;52.526;19.672;2023-02-16T04:50:05;101527.88;;;-2.60;100.00
61908;BME280;47864;52.526;19.672;2023-02-16T04:52:08;101548.19;;;-2.45;100.00
61908;BME280;47864;52.526;19.672;2023-02-16T04:54:09;101544.78;;;-2.47;100.00
61908;BME280;47864;52.526;19.672;2023-02-16T04:56:11;101541.06;;;-2.38;100.00
61908;BME280;47864;52.526;19.672;2023-02-16T04:58:14;101536.91;;;-2.44;100.00
61908;BME280;47864;52.526;19.672;2023-02-16T05:00:15;101549.72;;;-2.38;100.00
61908;BME280;47864;52.526;19.672;2023-02-16T05:02:17;101537.84;;;-2.46;100.00
61908;BME280;47864;52.526;19.672;2023-02-16T05:04:18;101544.66;;;-2.42;100.00
61908;BME280;47864;52.526;19.672;2023-02-16T05:06:20;101553.56;;;-2.51;100.00
61908;BME280;47864;52.526;19.672;2023-02-16T05:08:21;101561.31;;;-2.49;100.00
61908;BME280;47864;52.526;19.672;2023-02-16T05:10:23;101556.34;;;-2.57;100.00
61908;BME280;47864;52.526;19.672;2023-02-16T05:12:24;101555.31;;;-2.51;100.00
61908;BME280;47864;52.526;19.672;2023-02-16T05:14:31;101535.44;;;-2.52;100.00
61908;BME280;47864;52.526;19.672;2023-02-16T05:16:33;101544.47;;;-2.36;100.00
61908;BME280;47864;52.526;19.672;2023-02-16T05:18:37;101537.53;;;-2.36;100.00
61908;BME280;47864;52.526;19.672;2023-02-16T05:20:38;101547.63;;;-2.25;100.00
61908;BME280;47864;52.526;19.672;2023-02-16T05:22:39;101545.88;;;-2.24;100.00
61908;BME280;47864;52.526;19.672;2023-02-16T05:24:41;101541.69;;;-2.30;100.00
61908;BME280;47864;52.526;19.672;2023-02-16T05:26:43;101529.75;;;-2.36;100.00
61908;BME280;47864;52.526;19.672;2023-02-16T05:28:44;101550.28;;;-2.28;100.00
61908;BME280;47864;52.526;19.672;2023-02-16T05:30:46;101519.00;;;-2.53;100.00
61908;BME280;47864;52.526;19.672;2023-02-16T05:32:47;101543.50;;;-2.32;100.00
61908;BME280;47864;52.526;19.672;2023-02-16T05:34:49;101535.88;;;-2.38;100.00
61908;BME280;47864;52.526;19.672;2023-02-16T05:36:51;101539.09;;;-2.30;100.00
61908;BME280;47864;52.526;19.672;2023-02-16T05:38:52;101541.84;;;-2.35;100.00
61908;BME280;47864;52.526;19.672;2023-02-16T05:40:54;101535.72;;;-2.32;100.00
61908;BME280;47864;52.526;19.672;2023-02-16T05:42:55;101533.78;;;-2.25;100.00
61908;BME280;47864;52.526;19.672;2023-02-16T05:44:57;101542.19;;;-2.17;100.00
61908;BME280;47864;52.526;19.672;2023-02-16T05:46:58;101531.81;;;-2.19;100.00
61908;BME280;47864;52.526;19.672;2023-02-16T05:49:00;101540.47;;;-2.18;100.00
61908;BME280;47864;52.526;19.672;2023-02-16T05:51:02;101549.28;;;-2.22;100.00
61908;BME280;47864;52.526;19.672;2023-02-16T05:53:04;101555.13;;;-2.16;100.00
61908;BME280;47864;52.526;19.672;2023-02-16T05:55:05;101538.19;;;-2.29;100.00
61908;BME280;47864;52.526;19.672;2023-02-16T05:57:08;101535.78;;;-2.35;100.00
61908;BME280;47864;52.526;19.672;2023-02-16T05:59:10;101535.34;;;-2.49;100.00
61908;BME280;47864;52.526;19.672;2023-02-16T06:01:12;101552.06;;;-2.30;100.00
61908;BME280;47864;52.526;19.672;2023-02-16T06:03:14;101535.75;;;-2.34;100.00
61908;BME280;47864;52.526;19.672;2023-02-16T06:05:16;101539.66;;;-2.20;100.00
61908;BME280;47864;52.526;19.672;2023-02-16T06:07:17;101543.13;;;-2.20;100.00
61908;BME280;47864;52.526;19.672;2023-02-16T06:09:19;101545.47;;;-2.12;100.00
61908;BME280;47864;52.526;19.672;2023-02-16T06:11:20;101547.28;;;-2.14;100.00
61908;BME280;47864;52.526;19.672;2023-02-16T06:13:22;101530.16;;;-2.21;100.00
61908;BME280;47864;52.526;19.672;2023-02-16T06:15:24;101553.94;;;-2.06;100.00
61908;BME280;47864;52.526;19.672;2023-02-16T06:17:25;101516.19;;;-2.17;100.00
61908;BME280;47864;52.526;19.672;2023-02-16T06:19:27;101538.94;;;-1.98;100.00
61908;BME280;47864;52.526;19.672;2023-02-16T06:21:29;101553.34;;;-1.87;100.00
61908;BME280;47864;52.526;19.672;2023-02-16T06:23:30;101545.84;;;-1.97;100.00
61908;BME280;47864;52.526;19.672;2023-02-16T06:25:32;101511.44;;;-2.05;100.00
61908;BME280;47864;52.526;19.672;2023-02-16T06:27:34;101543.84;;;-1.88;100.00
61908;BME280;47864;52.526;19.672;2023-02-16T06:29:35;101548.41;;;-1.95;100.00
61908;BME280;47864;52.526;19.672;2023-02-16T06:31:37;101546.28;;;-1.82;100.00
61908;BME280;47864;52.526;19.672;2023-02-16T06:33:39;101539.00;;;-1.73;100.00
61908;BME280;47864;52.526;19.672;2023-02-16T06:35:40;101532.91;;;-1.72;100.00
61908;BME280;47864;52.526;19.672;2023-02-16T06:37:42;101528.72;;;-1.76;100.00
61908;BME280;47864;52.526;19.672;2023-02-16T06:39:44;101534.66;;;-1.46;100.00
61908;BME280;47864;52.526;19.672;2023-02-16T06:41:45;101518.16;;;-1.45;100.00
61908;BME280;47864;52.526;19.672;2023-02-16T06:43:47;101528.88;;;-1.29;100.00
61908;BME280;47864;52.526;19.672;2023-02-16T06:45:48;101526.91;;;-1.23;100.00
61908;BME280;47864;52.526;19.672;2023-02-16T06:47:50;101530.22;;;-1.42;100.00
61908;BME280;47864;52.526;19.672;2023-02-16T06:49:51;101516.13;;;-1.37;100.00
61908;BME280;47864;52.526;19.672;2023-02-16T06:51:53;101530.53;;;-1.27;100.00
61908;BME280;47864;52.526;19.672;2023-02-16T06:53:55;101532.50;;;-1.08;100.00
61908;BME280;47864;52.526;19.672;2023-02-16T06:55:56;101537.25;;;-0.96;100.00
61908;BME280;47864;52.526;19.672;2023-02-16T06:57:58;101510.06;;;-1.12;100.00
61908;BME280;47864;52.526;19.672;2023-02-16T06:59:59;101526.56;;;-0.89;100.00
61908;BME280;47864;52.526;19.672;2023-02-16T07:02:01;101529.25;;;-0.67;100.00
61908;BME280;47864;52.526;19.672;2023-02-16T07:04:02;101524.91;;;-0.66;100.00
61908;BME280;47864;52.526;19.672;2023-02-16T07:06:04;101478.06;;;-0.91;100.00
61908;BME280;47864;52.526;19.672;2023-02-16T07:08:06;101517.66;;;-0.36;100.00
61908;BME280;47864;52.526;19.672;2023-02-16T07:10:08;101504.81;;;-0.41;100.00
61908;BME280;47864;52.526;19.672;2023-02-16T07:12:10;101523.19;;;-0.22;100.00
61908;BME280;47864;52.526;19.672;2023-02-16T07:14:12;101524.34;;;-0.08;100.00
61908;BME280;47864;52.526;19.672;2023-02-16T07:16:13;101519.44;;;-0.15;100.00
61908;BME280;47864;52.526;19.672;2023-02-16T07:18:15;101515.94;;;0.08;100.00
61908;BME280;47864;52.526;19.672;2023-02-16T07:20:16;101516.50;;;0.36;100.00
61908;BME280;47864;52.526;19.672;2023-02-16T07:22:18;101528.34;;;0.65;100.00
61908;BME280;47864;52.526;19.672;2023-02-16T07:24:19;101499.50;;;0.48;100.00
61908;BME280;47864;52.526;19.672;2023-02-16T07:26:21;101510.84;;;0.47;100.00
61908;BME280;47864;52.526;19.672;2023-02-16T07:28:23;101522.59;;;0.77;100.00
61908;BME280;47864;52.526;19.672;2023-02-16T07:30:24;101517.28;;;0.79;100.00
61908;BME280;47864;52.526;19.672;2023-02-16T07:32:28;101514.91;;;0.74;100.00
61908;BME280;47864;52.526;19.672;2023-02-16T07:34:29;101470.44;;;0.55;100.00
61908;BME280;47864;52.526;19.672;2023-02-16T07:36:31;101500.56;;;1.03;100.00
61908;BME280;47864;52.526;19.672;2023-02-16T07:38:33;101511.72;;;1.06;100.00
61908;BME280;47864;52.526;19.672;2023-02-16T07:40:34;101521.34;;;1.25;100.00
61908;BME280;47864;52.526;19.672;2023-02-16T07:42:36;101520.81;;;1.37;100.00
61908;BME280;47864;52.526;19.672;2023-02-16T07:44:37;101508.22;;;1.26;100.00
61908;BME280;47864;52.526;19.672;2023-02-16T07:46:39;101515.94;;;1.48;100.00
61908;BME280;47864;52.526;19.672;2023-02-16T07:48:40;101529.34;;;1.59;100.00
61908;BME280;47864;52.526;19.672;2023-02-16T07:50:42;101533.78;;;1.57;100.00
61908;BME280;47864;52.526;19.672;2023-02-16T07:52:44;101532.69;;;1.63;100.00
61908;BME280;47864;52.526;19.672;2023-02-16T07:54:45;101521.44;;;1.79;100.00
61908;BME280;47864;52.526;19.672;2023-02-16T07:56:47;101507.88;;;1.71;100.00
61908;BME280;47864;52.526;19.672;2023-02-16T07:58:50;101511.41;;;1.70;100.00
61908;BME280;47864;52.526;19.672;2023-02-16T08:01:25;101523.03;;;2.01;100.00
61908;BME280;47864;52.526;19.672;2023-02-16T08:03:26;101517.69;;;2.21;100.00
61908;BME280;47864;52.526;19.672;2023-02-16T08:05:29;101512.22;;;2.25;100.00
61908;BME280;47864;52.526;19.672;2023-02-16T08:07:30;101516.94;;;2.53;100.00
61908;BME280;47864;52.526;19.672;2023-02-16T08:09:32;101499.06;;;2.61;100.00
61908;BME280;47864;52.526;19.672;2023-02-16T08:11:34;101513.38;;;2.72;100.00
61908;BME280;47864;52.526;19.672;2023-02-16T08:13:35;101511.31;;;2.61;100.00
61908;BME280;47864;52.526;19.672;2023-02-16T08:15:41;101492.06;;;2.62;100.00
61908;BME280;47864;52.526;19.672;2023-02-16T08:17:42;101494.72;;;2.78;100.00
61908;BME280;47864;52.526;19.672;2023-02-16T08:19:44;101488.97;;;2.54;100.00
61908;BME280;47864;52.526;19.672;2023-02-16T08:21:45;101489.91;;;2.53;100.00
61908;BME280;47864;52.526;19.672;2023-02-16T08:23:55;101498.94;;;2.80;100.00
61908;BME280;47864;52.526;19.672;2023-02-16T08:25:57;101490.88;;;2.85;100.00
61908;BME280;47864;52.526;19.672;2023-02-16T08:27:59;101494.56;;;2.81;100.00
61908;BME280;47864;52.526;19.672;2023-02-16T08:30:00;101501.53;;;2.97;100.00
61908;BME280;47864;52.526;19.672;2023-02-16T08:32:02;101494.03;;;2.74;100.00
61908;BME280;47864;52.526;19.672;2023-02-16T08:34:04;101490.31;;;2.95;100.00
61908;BME280;47864;52.526;19.672;2023-02-16T08:36:06;101485.63;;;2.85;100.00
61908;BME280;47864;52.526;19.672;2023-02-16T08:38:07;101487.94;;;2.74;100.00
61908;BME280;47864;52.526;19.672;2023-02-16T08:40:10;101462.06;;;2.67;100.00
61908;BME280;47864;52.526;19.672;2023-02-16T08:42:11;101481.38;;;2.82;100.00
61908;BME280;47864;52.526;19.672;2023-02-16T08:44:14;101476.94;;;2.67;100.00
61908;BME280;47864;52.526;19.672;2023-02-16T08:46:17;101466.41;;;2.51;100.00
61908;BME280;47864;52.526;19.672;2023-02-16T08:48:18;101477.84;;;2.83;100.00
61908;BME280;47864;52.526;19.672;2023-02-16T08:50:20;101483.00;;;3.18;100.00
61908;BME280;47864;52.526;19.672;2023-02-16T08:52:21;101478.88;;;3.29;100.00
61908;BME280;47864;52.526;19.672;2023-02-16T08:54:25;101475.22;;;3.16;100.00
61908;BME280;47864;52.526;19.672;2023-02-16T08:56:27;101479.63;;;3.31;100.00
61908;BME280;47864;52.526;19.672;2023-02-16T08:58:30;101470.31;;;3.26;100.00
61908;BME280;47864;52.526;19.672;2023-02-16T09:00:31;101472.81;;;3.44;100.00
61908;BME280;47864;52.526;19.672;2023-02-16T09:02:33;101495.13;;;3.36;100.00
61908;BME280;47864;52.526;19.672;2023-02-16T09:04:35;101471.25;;;3.40;100.00
61908;BME280;47864;52.526;19.672;2023-02-16T09:06:38;101487.56;;;3.30;100.00
61908;BME280;47864;52.526;19.672;2023-02-16T09:08:40;101491.75;;;3.50;100.00
61908;BME280;47864;52.526;19.672;2023-02-16T09:10:42;101486.25;;;3.70;100.00
61908;BME280;47864;52.526;19.672;2023-02-16T09:12:43;101486.22;;;3.54;100.00
61908;BME280;47864;52.526;19.672;2023-02-16T09:14:45;101488.34;;;3.48;100.00
61908;BME280;47864;52.526;19.672;2023-02-16T09:16:47;101488.41;;;3.30;100.00
61908;BME280;47864;52.526;19.672;2023-02-16T09:18:50;101490.63;;;3.38;100.00
61908;BME280;47864;52.526;19.672;2023-02-16T09:20:52;101495.06;;;3.37;100.00
61908;BME280;47864;52.526;19.672;2023-02-16T09:22:53;101496.16;;;3.49;100.00
61908;BME280;47864;52.526;19.672;2023-02-16T09:24:55;101490.31;;;3.44;100.00
61908;BME280;47864;52.526;19.672;2023-02-16T09:26:56;101484.88;;;3.31;100.00
61908;BME280;47864;52.526;19.672;2023-02-16T09:28:59;101487.28;;;3.52;100.00
61908;BME280;47864;52.526;19.672;2023-02-16T09:31:14;101483.72;;;3.68;100.00
61908;BME280;47864;52.526;19.672;2023-02-16T09:33:16;101487.06;;;4.02;100.00
61908;BME280;47864;52.526;19.672;2023-02-16T09:35:18;101465.59;;;3.95;100.00
61908;BME280;47864;52.526;19.672;2023-02-16T09:37:20;101481.19;;;3.67;100.00
61908;BME280;47864;52.526;19.672;2023-02-16T09:39:21;101462.91;;;3.50;100.00
61908;BME280;47864;52.526;19.672;2023-02-16T09:46:17;101485.38;;;4.01;100.00
61908;BME280;47864;52.526;19.672;2023-02-16T09:48:33;101490.97;;;3.79;100.00
61908;BME280;47864;52.526;19.672;2023-02-16T09:50:37;101487.59;;;3.93;100.00
61908;BME280;47864;52.526;19.672;2023-02-16T09:52:58;101473.69;;;4.06;100.00
61908;BME280;47864;52.526;19.672;2023-02-16T09:55:01;101483.88;;;4.27;100.00
61908;BME280;47864;52.526;19.672;2023-02-16T09:57:19;101479.22;;;4.32;100.00
61908;BME280;47864;52.526;19.672;2023-02-16T09:59:57;101477.72;;;4.12;100.00
61908;BME280;47864;52.526;19.672;2023-02-16T10:05:18;101483.03;;;4.56;100.00
61908;BME280;47864;52.526;19.672;2023-02-16T10:09:47;101479.31;;;4.88;100.00
61908;BME280;47864;52.526;19.672;2023-02-16T10:11:54;101472.00;;;4.93;100.00
61908;BME280;47864;52.526;19.672;2023-02-16T10:14:05;101470.00;;;4.69;100.00
61908;BME280;47864;52.526;19.672;2023-02-16T10:16:13;101463.16;;;4.66;100.00
61908;BME280;47864;52.526;19.672;2023-02-16T10:18:29;101464.16;;;4.64;100.00
61908;BME280;47864;52.526;19.672;2023-02-16T10:20:35;101453.00;;;4.60;100.00
61908;BME280;47864;52.526;19.672;2023-02-16T10:22:47;101442.97;;;4.81;100.00
61908;BME280;47864;52.526;19.672;2023-02-16T10:25:02;101461.19;;;5.12;100.00
61908;BME280;47864;52.526;19.672;2023-02-16T10:27:12;101458.81;;;5.36;100.00
61908;BME280;47864;52.526;19.672;2023-02-16T10:29:17;101467.56;;;5.36;100.00
61908;BME280;47864;52.526;19.672;2023-02-16T10:31:21;101469.38;;;5.08;100.00
61908;BME280;47864;52.526;19.672;2023-02-16T10:33:43;101464.75;;;4.97;100.00
61908;BME280;47864;52.526;19.672;2023-02-16T10:35:47;101455.81;;;4.71;100.00
61908;BME280;47864;52.526;19.672;2023-02-16T10:40:32;101459.63;;;5.10;100.00
61908;BME280;47864;52.526;19.672;2023-02-16T10:42:41;101445.88;;;5.05;100.00
61908;BME280;47864;52.526;19.672;2023-02-16T10:44:49;101435.94;;;5.24;100.00
61908;BME280;47864;52.526;19.672;2023-02-16T10:47:03;101458.63;;;5.39;100.00
61908;BME280;47864;52.526;19.672;2023-02-16T10:49:10;101440.81;;;5.16;100.00
61908;BME280;47864;52.526;19.672;2023-02-16T10:51:15;101449.25;;;5.35;100.00
61908;BME280;47864;52.526;19.672;2023-02-16T10:53:35;101451.69;;;5.38;100.00
61908;BME280;47864;52.526;19.672;2023-02-16T10:55:39;101455.38;;;5.62;100.00
61908;BME280;47864;52.526;19.672;2023-02-16T10:57:41;101439.53;;;5.77;100.00
61908;BME280;47864;52.526;19.672;2023-02-16T10:59:43;101451.72;;;6.19;100.00
61908;BME280;47864;52.526;19.672;2023-02-16T11:03:50;101443.09;;;6.29;100.00
61908;BME280;47864;52.526;19.672;2023-02-16T11:05:51;101446.56;;;6.17;100.00